sensor_id;sensor_type;location;lat;lon;timestamp;temperature;humidity
19180;DHT22;9722;48.754;8.868;2023-06-22T00:02:26;20.30;99.90
19180;DHT22;9722;48.754;8.868;2023-06-22T00:05:47;20.20;99.90
19180;DHT22;9722;48.754;8.868;2023-06-22T00:09:08;20.10;99.90
19180;DHT22;9722;48.754;8.868;2023-06-22T00:12:30;20.10;99.90
19180;DHT22;9722;48.754;8.868;2023-06-22T00:15:52;20.00;99.90
19180;DHT22;9722;48.754;8.868;2023-06-22T00:19:12;19.90;99.90
19180;DHT22;9722;48.754;8.868;2023-06-22T00:22:33;19.80;99.90
19180;DHT22;9722;48.754;8.868;2023-06-22T00:25:58;19.70;99.90
19180;DHT22;9722;48.754;8.868;2023-06-22T00:29:19;19.70;99.90
19180;DHT22;9722;48.754;8.868;2023-06-22T00:32:39;19.60;99.90
19180;DHT22;9722;48.754;8.868;2023-06-22T00:36:00;19.40;99.90
19180;DHT22;9722;48.754;8.868;2023-06-22T00:39:20;19.30;99.90
19180;DHT22;9722;48.754;8.868;2023-06-22T00:42:41;19.20;99.90
19180;DHT22;9722;48.754;8.868;2023-06-22T00:46:02;19.20;99.90
19180;DHT22;9722;48.754;8.868;2023-06-22T00:49:23;19.20;99.90
19180;DHT22;9722;48.754;8.868;2023-06-22T00:52:44;19.20;99.90
19180;DHT22;9722;48.754;8.868;2023-06-22T00:56:07;19.20;99.90
19180;DHT22;9722;48.754;8.868;2023-06-22T00:59:29;19.20;99.90
19180;DHT22;9722;48.754;8.868;2023-06-22T01:02:53;19.20;99.90
19180;DHT22;9722;48.754;8.868;2023-06-22T01:06:26;19.20;99.90
19180;DHT22;9722;48.754;8.868;2023-06-22T01:10:07;19.20;99.90
19180;DHT22;9722;48.754;8.868;2023-06-22T01:13:55;19.20;99.90
19180;DHT22;9722;48.754;8.868;2023-06-22T01:17:19;19.20;99.90
19180;DHT22;9722;48.754;8.868;2023-06-22T01:20:40;19.20;99.90
19180;DHT22;9722;48.754;8.868;2023-06-22T01:31:07;19.10;99.90
19180;DHT22;9722;48.754;8.868;2023-06-22T01:34:30;19.20;99.90
19180;DHT22;9722;48.754;8.868;2023-06-22T01:37:51;19.10;99.90
19180;DHT22;9722;48.754;8.868;2023-06-22T01:41:12;19.10;99.90
19180;DHT22;9722;48.754;8.868;2023-06-22T01:44:34;19.10;99.90
19180;DHT22;9722;48.754;8.868;2023-06-22T01:47:55;19.10;99.90
19180;DHT22;9722;48.754;8.868;2023-06-22T01:51:16;19.00;99.90
19180;DHT22;9722;48.754;8.868;2023-06-22T01:54:38;19.00;99.90
19180;DHT22;9722;48.754;8.868;2023-06-22T01:57:58;19.00;99.90
19180;DHT22;9722;48.754;8.868;2023-06-22T02:01:28;19.00;99.90
19180;DHT22;9722;48.754;8.868;2023-06-22T02:04:58;18.90;99.90
19180;DHT22;9722;48.754;8.868;2023-06-22T02:08:22;18.90;99.90
19180;DHT22;9722;48.754;8.868;2023-06-22T02:11:45;18.90;99.90
19180;DHT22;9722;48.754;8.868;2023-06-22T02:15:08;18.90;99.90
19180;DHT22;9722;48.754;8.868;2023-06-22T02:18:29;18.80;99.90
19180;DHT22;9722;48.754;8.868;2023-06-22T02:21:50;18.80;99.90
19180;DHT22;9722;48.754;8.868;2023-06-22T02:25:10;18.80;99.90
19180;DHT22;9722;48.754;8.868;2023-06-22T02:28:31;18.70;99.90
19180;DHT22;9722;48.754;8.868;2023-06-22T02:31:51;18.70;99.90
19180;DHT22;9722;48.754;8.868;2023-06-22T02:35:12;18.70;99.90
19180;DHT22;9722;48.754;8.868;2023-06-22T02:38:33;18.70;99.90
19180;DHT22;9722;48.754;8.868;2023-06-22T02:41:54;18.70;99.90
19180;DHT22;9722;48.754;8.868;2023-06-22T02:45:15;18.60;99.90
19180;DHT22;9722;48.754;8.868;2023-06-22T02:48:35;18.60;99.90
19180;DHT22;9722;48.754;8.868;2023-06-22T02:51:57;18.50;99.90
19180;DHT22;9722;48.754;8.868;2023-06-22T02:55:17;18.40;99.90
19180;DHT22;9722;48.754;8.868;2023-06-22T02:58:38;18.50;99.90
19180;DHT22;9722;48.754;8.868;2023-06-22T03:01:59;18.40;99.90
19180;DHT22;9722;48.754;8.868;2023-06-22T03:05:19;18.50;99.90
19180;DHT22;9722;48.754;8.868;2023-06-22T03:08:40;18.40;99.90
19180;DHT22;9722;48.754;8.868;2023-06-22T03:12:01;18.40;99.90
19180;DHT22;9722;48.754;8.868;2023-06-22T03:15:22;18.40;99.90
19180;DHT22;9722;48.754;8.868;2023-06-22T03:18:43;18.30;99.90
19180;DHT22;9722;48.754;8.868;2023-06-22T03:22:04;18.30;99.90
19180;DHT22;9722;48.754;8.868;2023-06-22T03:25:24;18.30;99.90
19180;DHT22;9722;48.754;8.868;2023-06-22T03:28:45;18.20;99.90
19180;DHT22;9722;48.754;8.868;2023-06-22T03:32:06;18.20;99.90
19180;DHT22;9722;48.754;8.868;2023-06-22T03:35:27;18.20;99.90
19180;DHT22;9722;48.754;8.868;2023-06-22T03:38:49;18.20;99.90
19180;DHT22;9722;48.754;8.868;2023-06-22T03:42:09;18.20;99.90
19180;DHT22;9722;48.754;8.868;2023-06-22T03:45:30;18.20;99.90
19180;DHT22;9722;48.754;8.868;2023-06-22T03:48:50;18.20;99.90
19180;DHT22;9722;48.754;8.868;2023-06-22T03:52:11;18.10;99.90
19180;DHT22;9722;48.754;8.868;2023-06-22T03:55:33;18.10;99.90
19180;DHT22;9722;48.754;8.868;2023-06-22T03:58:54;18.10;99.90
19180;DHT22;9722;48.754;8.868;2023-06-22T04:02:14;18.10;99.90
19180;DHT22;9722;48.754;8.868;2023-06-22T04:05:35;18.10;99.90
19180;DHT22;9722;48.754;8.868;2023-06-22T04:08:55;18.20;99.90
19180;DHT22;9722;48.754;8.868;2023-06-22T04:12:16;18.30;99.90
19180;DHT22;9722;48.754;8.868;2023-06-22T04:15:36;18.30;99.90
19180;DHT22;9722;48.754;8.868;2023-06-22T04:18:57;18.40;99.90
19180;DHT22;9722;48.754;8.868;2023-06-22T04:22:18;18.40;99.90
19180;DHT22;9722;48.754;8.868;2023-06-22T04:25:39;18.50;99.90
19180;DHT22;9722;48.754;8.868;2023-06-22T04:28:59;18.60;99.90
19180;DHT22;9722;48.754;8.868;2023-06-22T04:32:20;18.70;99.90
19180;DHT22;9722;48.754;8.868;2023-06-22T04:35:41;18.80;99.90
19180;DHT22;9722;48.754;8.868;2023-06-22T04:39:01;18.90;99.90
19180;DHT22;9722;48.754;8.868;2023-06-22T04:42:22;19.10;99.90
19180;DHT22;9722;48.754;8.868;2023-06-22T04:45:43;19.20;99.90
19180;DHT22;9722;48.754;8.868;2023-06-22T04:49:06;19.30;99.90
19180;DHT22;9722;48.754;8.868;2023-06-22T04:52:30;19.50;99.90
19180;DHT22;9722;48.754;8.868;2023-06-22T04:55:50;19.60;99.90
19180;DHT22;9722;48.754;8.868;2023-06-22T04:59:13;19.80;99.90
19180;DHT22;9722;48.754;8.868;2023-06-22T05:02:34;20.00;99.90
19180;DHT22;9722;48.754;8.868;2023-06-22T05:05:54;20.20;99.90
19180;DHT22;9722;48.754;8.868;2023-06-22T05:09:15;20.40;99.90
19180;DHT22;9722;48.754;8.868;2023-06-22T05:12:35;20.60;99.90
19180;DHT22;9722;48.754;8.868;2023-06-22T05:15:56;20.80;99.90
19180;DHT22;9722;48.754;8.868;2023-06-22T05:19:21;21.00;99.90
19180;DHT22;9722;48.754;8.868;2023-06-22T05:22:41;21.20;99.90
19180;DHT22;9722;48.754;8.868;2023-06-22T05:26:03;21.30;99.90
19180;DHT22;9722;48.754;8.868;2023-06-22T05:29:23;21.50;99.90
19180;DHT22;9722;48.754;8.868;2023-06-22T05:32:44;21.70;99.90
19180;DHT22;9722;48.754;8.868;2023-06-22T05:36:05;21.90;99.90
19180;DHT22;9722;48.754;8.868;2023-06-22T05:39:25;22.00;99.90
19180;DHT22;9722;48.754;8.868;2023-06-22T05:42:46;22.00;99.80
19180;DHT22;9722;48.754;8.868;2023-06-22T05:46:06;22.00;99.60
19180;DHT22;9722;48.754;8.868;2023-06-22T05:49:27;22.10;99.40
19180;DHT22;9722;48.754;8.868;2023-06-22T05:52:53;22.30;99.00
19180;DHT22;9722;48.754;8.868;2023-06-22T05:56:13;22.60;98.60
19180;DHT22;9722;48.754;8.868;2023-06-22T05:59:34;22.90;97.80
19180;DHT22;9722;48.754;8.868;2023-06-22T06:02:55;23.30;96.90
19180;DHT22;9722;48.754;8.868;2023-06-22T06:06:16;23.70;95.80
19180;DHT22;9722;48.754;8.868;2023-06-22T06:09:37;24.10;94.90
19180;DHT22;9722;48.754;8.868;2023-06-22T06:12:57;24.50;93.90
19180;DHT22;9722;48.754;8.868;2023-06-22T06:16:18;24.90;92.70
19180;DHT22;9722;48.754;8.868;2023-06-22T06:19:39;25.30;91.30
19180;DHT22;9722;48.754;8.868;2023-06-22T06:22:59;25.60;90.20
19180;DHT22;9722;48.754;8.868;2023-06-22T06:26:20;25.90;88.10
19180;DHT22;9722;48.754;8.868;2023-06-22T06:29:48;26.30;86.90
19180;DHT22;9722;48.754;8.868;2023-06-22T06:33:09;26.70;85.00
19180;DHT22;9722;48.754;8.868;2023-06-22T06:36:29;27.20;83.30
19180;DHT22;9722;48.754;8.868;2023-06-22T06:39:50;27.60;80.40
19180;DHT22;9722;48.754;8.868;2023-06-22T06:43:10;28.00;76.30
19180;DHT22;9722;48.754;8.868;2023-06-22T06:46:31;28.40;74.80
19180;DHT22;9722;48.754;8.868;2023-06-22T06:49:51;28.70;71.30
19180;DHT22;9722;48.754;8.868;2023-06-22T06:53:12;28.80;69.20
19180;DHT22;9722;48.754;8.868;2023-06-22T06:56:32;29.00;67.30
19180;DHT22;9722;48.754;8.868;2023-06-22T06:59:53;29.00;67.50
19180;DHT22;9722;48.754;8.868;2023-06-22T07:03:13;29.30;65.70
19180;DHT22;9722;48.754;8.868;2023-06-22T07:06:34;29.40;65.50
19180;DHT22;9722;48.754;8.868;2023-06-22T07:09:54;29.70;64.50
19180;DHT22;9722;48.754;8.868;2023-06-22T07:13:15;30.00;62.80
19180;DHT22;9722;48.754;8.868;2023-06-22T07:16:35;30.20;61.40
19180;DHT22;9722;48.754;8.868;2023-06-22T07:19:56;30.40;59.80
19180;DHT22;9722;48.754;8.868;2023-06-22T07:23:17;30.60;58.50
19180;DHT22;9722;48.754;8.868;2023-06-22T07:26:37;30.60;57.10
19180;DHT22;9722;48.754;8.868;2023-06-22T07:29:58;30.70;56.70
19180;DHT22;9722;48.754;8.868;2023-06-22T07:33:18;30.70;56.50
19180;DHT22;9722;48.754;8.868;2023-06-22T07:36:39;30.80;56.00
19180;DHT22;9722;48.754;8.868;2023-06-22T07:40:00;31.10;55.70
19180;DHT22;9722;48.754;8.868;2023-06-22T07:43:21;31.30;55.00
19180;DHT22;9722;48.754;8.868;2023-06-22T07:46:41;31.50;54.30
19180;DHT22;9722;48.754;8.868;2023-06-22T07:50:04;31.60;54.20
19180;DHT22;9722;48.754;8.868;2023-06-22T07:53:24;31.90;53.70
19180;DHT22;9722;48.754;8.868;2023-06-22T07:56:46;32.30;53.20
19180;DHT22;9722;48.754;8.868;2023-06-22T08:00:10;32.50;52.00
19180;DHT22;9722;48.754;8.868;2023-06-22T08:03:35;32.50;52.30
19180;DHT22;9722;48.754;8.868;2023-06-22T08:06:55;32.70;51.60
19180;DHT22;9722;48.754;8.868;2023-06-22T08:10:16;33.10;51.30
19180;DHT22;9722;48.754;8.868;2023-06-22T08:13:37;33.40;50.10
19180;DHT22;9722;48.754;8.868;2023-06-22T08:16:57;33.10;50.20
19180;DHT22;9722;48.754;8.868;2023-06-22T08:20:18;33.00;50.50
19180;DHT22;9722;48.754;8.868;2023-06-22T08:23:38;32.70;50.70
19180;DHT22;9722;48.754;8.868;2023-06-22T08:26:59;32.10;51.80
19180;DHT22;9722;48.754;8.868;2023-06-22T08:30:19;31.50;52.90
19180;DHT22;9722;48.754;8.868;2023-06-22T08:33:40;30.90;53.80
19180;DHT22;9722;48.754;8.868;2023-06-22T08:37:01;30.30;55.00
19180;DHT22;9722;48.754;8.868;2023-06-22T08:40:22;29.70;56.30
19180;DHT22;9722;48.754;8.868;2023-06-22T08:43:43;29.30;57.30
19180;DHT22;9722;48.754;8.868;2023-06-22T08:47:04;29.40;57.70
19180;DHT22;9722;48.754;8.868;2023-06-22T08:50:25;29.70;57.90
19180;DHT22;9722;48.754;8.868;2023-06-22T08:53:46;29.90;57.40
19180;DHT22;9722;48.754;8.868;2023-06-22T08:57:06;30.10;57.40
19180;DHT22;9722;48.754;8.868;2023-06-22T09:00:27;30.20;57.60
19180;DHT22;9722;48.754;8.868;2023-06-22T09:03:49;30.60;56.50
19180;DHT22;9722;48.754;8.868;2023-06-22T09:07:14;31.30;55.30
19180;DHT22;9722;48.754;8.868;2023-06-22T09:10:35;31.50;54.60
19180;DHT22;9722;48.754;8.868;2023-06-22T09:13:55;31.30;54.70
19180;DHT22;9722;48.754;8.868;2023-06-22T09:17:16;31.10;54.60
19180;DHT22;9722;48.754;8.868;2023-06-22T09:20:36;30.90;55.30
19180;DHT22;9722;48.754;8.868;2023-06-22T09:23:57;31.00;55.60
19180;DHT22;9722;48.754;8.868;2023-06-22T09:27:17;31.80;54.30
19180;DHT22;9722;48.754;8.868;2023-06-22T09:30:38;32.70;52.40
19180;DHT22;9722;48.754;8.868;2023-06-22T09:33:58;33.40;51.20
19180;DHT22;9722;48.754;8.868;2023-06-22T09:37:19;34.10;50.50
19180;DHT22;9722;48.754;8.868;2023-06-22T09:40:40;35.00;49.30
19180;DHT22;9722;48.754;8.868;2023-06-22T09:44:00;35.70;47.40
19180;DHT22;9722;48.754;8.868;2023-06-22T09:47:21;36.40;46.70
19180;DHT22;9722;48.754;8.868;2023-06-22T09:50:41;37.20;45.20
19180;DHT22;9722;48.754;8.868;2023-06-22T09:54:02;37.70;43.70
19180;DHT22;9722;48.754;8.868;2023-06-22T09:57:22;37.80;43.40
19180;DHT22;9722;48.754;8.868;2023-06-22T10:00:43;37.90;42.10
19180;DHT22;9722;48.754;8.868;2023-06-22T10:04:03;37.20;42.60
19180;DHT22;9722;48.754;8.868;2023-06-22T10:07:24;36.60;43.80
19180;DHT22;9722;48.754;8.868;2023-06-22T10:10:44;36.40;44.40
19180;DHT22;9722;48.754;8.868;2023-06-22T10:14:05;36.70;44.70
19180;DHT22;9722;48.754;8.868;2023-06-22T10:17:25;37.00;44.40
19180;DHT22;9722;48.754;8.868;2023-06-22T10:20:48;37.10;43.80
19180;DHT22;9722;48.754;8.868;2023-06-22T10:24:09;37.30;43.60
19180;DHT22;9722;48.754;8.868;2023-06-22T10:27:29;37.70;43.40
19180;DHT22;9722;48.754;8.868;2023-06-22T10:30:51;38.20;42.30
19180;DHT22;9722;48.754;8.868;2023-06-22T10:34:12;38.40;41.60
19180;DHT22;9722;48.754;8.868;2023-06-22T10:37:32;38.30;41.50
19180;DHT22;9722;48.754;8.868;2023-06-22T10:40:53;37.90;42.20
19180;DHT22;9722;48.754;8.868;2023-06-22T10:44:13;37.90;42.80
19180;DHT22;9722;48.754;8.868;2023-06-22T10:47:34;38.10;42.60
19180;DHT22;9722;48.754;8.868;2023-06-22T10:50:55;38.20;42.10
19180;DHT22;9722;48.754;8.868;2023-06-22T10:54:16;38.10;42.70
19180;DHT22;9722;48.754;8.868;2023-06-22T10:57:38;38.10;42.90
19180;DHT22;9722;48.754;8.868;2023-06-22T11:01:03;38.40;41.80
19180;DHT22;9722;48.754;8.868;2023-06-22T11:04:23;38.50;41.60
19180;DHT22;9722;48.754;8.868;2023-06-22T11:07:44;38.70;40.80
19180;DHT22;9722;48.754;8.868;2023-06-22T11:11:04;38.80;41.50
19180;DHT22;9722;48.754;8.868;2023-06-22T11:14:25;38.80;40.80
19180;DHT22;9722;48.754;8.868;2023-06-22T11:17:46;38.30;41.30
19180;DHT22;9722;48.754;8.868;2023-06-22T11:21:06;37.80;42.20
19180;DHT22;9722;48.754;8.868;2023-06-22T11:24:27;37.40;42.70
19180;DHT22;9722;48.754;8.868;2023-06-22T11:27:47;36.90;43.10
19180;DHT22;9722;48.754;8.868;2023-06-22T11:31:08;36.50;44.00
19180;DHT22;9722;48.754;8.868;2023-06-22T11:34:29;36.50;44.10
19180;DHT22;9722;48.754;8.868;2023-06-22T11:37:49;36.50;44.40
19180;DHT22;9722;48.754;8.868;2023-06-22T11:41:10;36.50;44.10
19180;DHT22;9722;48.754;8.868;2023-06-22T11:44:31;36.40;44.10
19180;DHT22;9722;48.754;8.868;2023-06-22T11:47:51;36.10;44.50
19180;DHT22;9722;48.754;8.868;2023-06-22T11:51:12;35.80;45.00
19180;DHT22;9722;48.754;8.868;2023-06-22T11:54:32;35.40;45.10
19180;DHT22;9722;48.754;8.868;2023-06-22T11:57:55;35.10;45.70
19180;DHT22;9722;48.754;8.868;2023-06-22T12:01:16;34.70;46.10
19180;DHT22;9722;48.754;8.868;2023-06-22T12:04:37;34.30;46.60
19180;DHT22;9722;48.754;8.868;2023-06-22T12:07:58;34.00;47.20
19180;DHT22;9722;48.754;8.868;2023-06-22T12:11:18;33.80;48.00
19180;DHT22;9722;48.754;8.868;2023-06-22T12:14:39;33.70;48.40
19180;DHT22;9722;48.754;8.868;2023-06-22T12:17:59;33.60;48.50
19180;DHT22;9722;48.754;8.868;2023-06-22T12:21:21;33.50;48.30
19180;DHT22;9722;48.754;8.868;2023-06-22T12:24:42;33.60;48.50
19180;DHT22;9722;48.754;8.868;2023-06-22T12:28:02;33.70;48.20
19180;DHT22;9722;48.754;8.868;2023-06-22T12:31:24;33.90;48.00
19180;DHT22;9722;48.754;8.868;2023-06-22T12:34:45;34.10;48.10
19180;DHT22;9722;48.754;8.868;2023-06-22T12:38:05;34.20;48.10
19180;DHT22;9722;48.754;8.868;2023-06-22T12:41:27;34.00;47.90
19180;DHT22;9722;48.754;8.868;2023-06-22T12:44:47;33.70;48.30
19180;DHT22;9722;48.754;8.868;2023-06-22T12:48:08;33.40;49.00
19180;DHT22;9722;48.754;8.868;2023-06-22T12:51:28;33.20;49.60
19180;DHT22;9722;48.754;8.868;2023-06-22T12:54:49;33.00;50.50
19180;DHT22;9722;48.754;8.868;2023-06-22T12:58:09;32.80;51.20
19180;DHT22;9722;48.754;8.868;2023-06-22T13:01:31;32.70;51.70
19180;DHT22;9722;48.754;8.868;2023-06-22T13:04:52;32.60;52.40
19180;DHT22;9722;48.754;8.868;2023-06-22T13:08:13;32.40;53.00
19180;DHT22;9722;48.754;8.868;2023-06-22T13:11:34;32.30;53.50
19180;DHT22;9722;48.754;8.868;2023-06-22T13:14:54;32.10;53.60
19180;DHT22;9722;48.754;8.868;2023-06-22T13:18:15;32.00;53.70
19180;DHT22;9722;48.754;8.868;2023-06-22T13:21:35;31.80;53.90
19180;DHT22;9722;48.754;8.868;2023-06-22T13:24:56;31.70;54.30
19180;DHT22;9722;48.754;8.868;2023-06-22T13:28:18;31.70;54.30
19180;DHT22;9722;48.754;8.868;2023-06-22T13:31:38;31.80;54.10
19180;DHT22;9722;48.754;8.868;2023-06-22T13:34:59;32.00;53.60
19180;DHT22;9722;48.754;8.868;2023-06-22T13:38:19;32.20;53.40
19180;DHT22;9722;48.754;8.868;2023-06-22T13:41:40;32.30;53.30
19180;DHT22;9722;48.754;8.868;2023-06-22T13:45:04;32.40;53.30
19180;DHT22;9722;48.754;8.868;2023-06-22T13:48:25;32.40;53.40
19180;DHT22;9722;48.754;8.868;2023-06-22T13:51:46;32.40;53.00
19180;DHT22;9722;48.754;8.868;2023-06-22T13:55:08;32.40;52.90
19180;DHT22;9722;48.754;8.868;2023-06-22T13:58:30;32.50;53.00
19180;DHT22;9722;48.754;8.868;2023-06-22T14:01:50;32.60;53.10
19180;DHT22;9722;48.754;8.868;2023-06-22T14:05:11;32.80;52.80
19180;DHT22;9722;48.754;8.868;2023-06-22T14:08:31;32.90;52.80
19180;DHT22;9722;48.754;8.868;2023-06-22T14:11:54;33.00;51.10
19180;DHT22;9722;48.754;8.868;2023-06-22T14:15:15;33.00;50.80
19180;DHT22;9722;48.754;8.868;2023-06-22T14:18:35;33.20;48.30
19180;DHT22;9722;48.754;8.868;2023-06-22T14:21:56;33.30;46.50
19180;DHT22;9722;48.754;8.868;2023-06-22T14:25:17;33.50;43.20
19180;DHT22;9722;48.754;8.868;2023-06-22T14:28:37;33.70;41.80
19180;DHT22;9722;48.754;8.868;2023-06-22T14:31:59;33.80;40.50
19180;DHT22;9722;48.754;8.868;2023-06-22T14:35:19;33.90;40.00
19180;DHT22;9722;48.754;8.868;2023-06-22T14:38:41;33.80;40.40
19180;DHT22;9722;48.754;8.868;2023-06-22T14:42:02;33.90;40.50
19180;DHT22;9722;48.754;8.868;2023-06-22T14:45:24;33.90;40.30
19180;DHT22;9722;48.754;8.868;2023-06-22T14:48:44;33.90;40.30
19180;DHT22;9722;48.754;8.868;2023-06-22T14:52:05;33.80;39.70
19180;DHT22;9722;48.754;8.868;2023-06-22T14:55:26;33.70;39.00
19180;DHT22;9722;48.754;8.868;2023-06-22T14:58:47;33.60;39.10
19180;DHT22;9722;48.754;8.868;2023-06-22T15:02:07;33.50;39.10
19180;DHT22;9722;48.754;8.868;2023-06-22T15:05:28;33.50;39.10
19180;DHT22;9722;48.754;8.868;2023-06-22T15:08:48;33.40;39.40
19180;DHT22;9722;48.754;8.868;2023-06-22T15:12:09;33.40;39.10
19180;DHT22;9722;48.754;8.868;2023-06-22T15:15:31;33.30;39.10
19180;DHT22;9722;48.754;8.868;2023-06-22T15:18:52;33.10;39.40
19180;DHT22;9722;48.754;8.868;2023-06-22T15:22:12;32.90;39.90
19180;DHT22;9722;48.754;8.868;2023-06-22T15:25:33;32.60;40.10
19180;DHT22;9722;48.754;8.868;2023-06-22T15:28:53;32.40;40.80
19180;DHT22;9722;48.754;8.868;2023-06-22T15:32:15;32.20;41.30
19180;DHT22;9722;48.754;8.868;2023-06-22T15:35:35;32.00;41.60
19180;DHT22;9722;48.754;8.868;2023-06-22T15:38:56;31.90;42.60
19180;DHT22;9722;48.754;8.868;2023-06-22T15:42:16;31.80;42.30
19180;DHT22;9722;48.754;8.868;2023-06-22T15:45:37;31.80;42.70
19180;DHT22;9722;48.754;8.868;2023-06-22T15:48:57;31.90;42.80
19180;DHT22;9722;48.754;8.868;2023-06-22T15:52:18;31.90;43.00
19180;DHT22;9722;48.754;8.868;2023-06-22T15:55:39;32.00;43.30
19180;DHT22;9722;48.754;8.868;2023-06-22T15:59:00;32.10;43.20
19180;DHT22;9722;48.754;8.868;2023-06-22T16:02:21;32.10;43.10
19180;DHT22;9722;48.754;8.868;2023-06-22T16:05:42;32.00;43.20
19180;DHT22;9722;48.754;8.868;2023-06-22T16:09:03;31.90;43.40
19180;DHT22;9722;48.754;8.868;2023-06-22T16:12:25;31.70;43.80
19180;DHT22;9722;48.754;8.868;2023-06-22T16:15:47;31.60;44.10
19180;DHT22;9722;48.754;8.868;2023-06-22T16:19:07;31.40;43.40
19180;DHT22;9722;48.754;8.868;2023-06-22T16:22:28;31.30;43.50
19180;DHT22;9722;48.754;8.868;2023-06-22T16:25:49;31.10;43.90
19180;DHT22;9722;48.754;8.868;2023-06-22T16:29:10;31.10;43.50
19180;DHT22;9722;48.754;8.868;2023-06-22T16:32:30;30.90;42.80
19180;DHT22;9722;48.754;8.868;2023-06-22T16:35:51;30.70;43.10
19180;DHT22;9722;48.754;8.868;2023-06-22T16:39:11;30.50;43.60
19180;DHT22;9722;48.754;8.868;2023-06-22T16:42:32;30.40;44.00
19180;DHT22;9722;48.754;8.868;2023-06-22T16:45:52;30.30;44.60
19180;DHT22;9722;48.754;8.868;2023-06-22T16:49:13;30.10;45.20
19180;DHT22;9722;48.754;8.868;2023-06-22T16:52:33;30.00;46.10
19180;DHT22;9722;48.754;8.868;2023-06-22T16:55:54;29.80;46.70
19180;DHT22;9722;48.754;8.868;2023-06-22T16:59:15;29.60;47.50
19180;DHT22;9722;48.754;8.868;2023-06-22T17:02:43;29.30;48.30
19180;DHT22;9722;48.754;8.868;2023-06-22T17:06:05;29.00;49.30
19180;DHT22;9722;48.754;8.868;2023-06-22T17:09:26;28.80;49.90
19180;DHT22;9722;48.754;8.868;2023-06-22T17:12:50;28.60;50.40
19180;DHT22;9722;48.754;8.868;2023-06-22T17:16:11;28.50;51.00
19180;DHT22;9722;48.754;8.868;2023-06-22T17:19:32;28.30;51.30
19180;DHT22;9722;48.754;8.868;2023-06-22T17:22:52;28.20;51.60
19180;DHT22;9722;48.754;8.868;2023-06-22T17:26:14;28.10;52.00
19180;DHT22;9722;48.754;8.868;2023-06-22T17:29:35;27.90;52.40
19180;DHT22;9722;48.754;8.868;2023-06-22T17:32:57;27.70;53.20
19180;DHT22;9722;48.754;8.868;2023-06-22T17:36:18;27.60;53.80
19180;DHT22;9722;48.754;8.868;2023-06-22T17:39:38;27.40;54.50
19180;DHT22;9722;48.754;8.868;2023-06-22T17:43:03;27.20;54.80
19180;DHT22;9722;48.754;8.868;2023-06-22T17:46:25;27.00;55.30
19180;DHT22;9722;48.754;8.868;2023-06-22T17:49:50;26.80;55.80
19180;DHT22;9722;48.754;8.868;2023-06-22T17:53:12;26.60;56.40
19180;DHT22;9722;48.754;8.868;2023-06-22T17:56:33;26.40;56.80
19180;DHT22;9722;48.754;8.868;2023-06-22T17:59:53;26.20;57.00
19180;DHT22;9722;48.754;8.868;2023-06-22T18:03:14;26.10;57.90
19180;DHT22;9722;48.754;8.868;2023-06-22T18:06:39;25.90;58.90
19180;DHT22;9722;48.754;8.868;2023-06-22T18:10:01;25.70;59.70
19180;DHT22;9722;48.754;8.868;2023-06-22T18:13:22;25.50;60.10
19180;DHT22;9722;48.754;8.868;2023-06-22T18:16:49;25.40;60.90
19180;DHT22;9722;48.754;8.868;2023-06-22T18:20:10;25.20;61.60
19180;DHT22;9722;48.754;8.868;2023-06-22T18:23:32;25.00;62.30
19180;DHT22;9722;48.754;8.868;2023-06-22T18:26:56;24.80;63.30
19180;DHT22;9722;48.754;8.868;2023-06-22T18:30:17;24.60;64.10
19180;DHT22;9722;48.754;8.868;2023-06-22T18:33:39;24.50;64.40
19180;DHT22;9722;48.754;8.868;2023-06-22T18:37:03;24.40;63.90
19180;DHT22;9722;48.754;8.868;2023-06-22T18:40:25;24.40;63.80
19180;DHT22;9722;48.754;8.868;2023-06-22T18:43:46;24.30;63.60
19180;DHT22;9722;48.754;8.868;2023-06-22T18:47:08;24.30;63.50
19180;DHT22;9722;48.754;8.868;2023-06-22T18:50:43;24.20;63.60
19180;DHT22;9722;48.754;8.868;2023-06-22T18:54:04;24.20;63.80
19180;DHT22;9722;48.754;8.868;2023-06-22T18:57:27;24.10;63.80
19180;DHT22;9722;48.754;8.868;2023-06-22T19:00:54;24.10;63.80
19180;DHT22;9722;48.754;8.868;2023-06-22T19:04:34;24.00;64.00
19180;DHT22;9722;48.754;8.868;2023-06-22T19:11:16;23.90;64.30
19180;DHT22;9722;48.754;8.868;2023-06-22T19:14:37;23.90;64.60
19180;DHT22;9722;48.754;8.868;2023-06-22T19:18:02;23.80;64.80
19180;DHT22;9722;48.754;8.868;2023-06-22T19:21:34;23.80;65.20
19180;DHT22;9722;48.754;8.868;2023-06-22T19:24:59;23.70;65.40
19180;DHT22;9722;48.754;8.868;2023-06-22T19:28:20;23.60;65.80
19180;DHT22;9722;48.754;8.868;2023-06-22T19:31:42;23.50;66.10
19180;DHT22;9722;48.754;8.868;2023-06-22T19:35:05;23.40;66.50
19180;DHT22;9722;48.754;8.868;2023-06-22T19:38:26;23.40;66.90
19180;DHT22;9722;48.754;8.868;2023-06-22T19:41:47;23.20;67.60
19180;DHT22;9722;48.754;8.868;2023-06-22T19:45:09;23.20;69.00
19180;DHT22;9722;48.754;8.868;2023-06-22T19:48:33;23.10;68.80
19180;DHT22;9722;48.754;8.868;2023-06-22T19:51:54;23.00;69.30
19180;DHT22;9722;48.754;8.868;2023-06-22T19:55:14;22.90;69.80
19180;DHT22;9722;48.754;8.868;2023-06-22T19:58:35;22.80;70.00
19180;DHT22;9722;48.754;8.868;2023-06-22T20:01:56;22.80;70.80
19180;DHT22;9722;48.754;8.868;2023-06-22T20:05:20;22.80;71.20
19180;DHT22;9722;48.754;8.868;2023-06-22T20:08:49;22.80;72.10
19180;DHT22;9722;48.754;8.868;2023-06-22T20:12:22;22.80;73.00
19180;DHT22;9722;48.754;8.868;2023-06-22T20:15:44;22.80;73.30
19180;DHT22;9722;48.754;8.868;2023-06-22T20:19:12;22.80;73.80
19180;DHT22;9722;48.754;8.868;2023-06-22T20:22:41;22.80;74.20
19180;DHT22;9722;48.754;8.868;2023-06-22T20:26:01;22.80;75.00
19180;DHT22;9722;48.754;8.868;2023-06-22T20:29:40;22.80;75.60
19180;DHT22;9722;48.754;8.868;2023-06-22T20:33:01;22.80;76.20
19180;DHT22;9722;48.754;8.868;2023-06-22T20:36:25;22.70;76.40
19180;DHT22;9722;48.754;8.868;2023-06-22T20:39:46;22.70;77.00
19180;DHT22;9722;48.754;8.868;2023-06-22T20:43:07;22.60;77.20
19180;DHT22;9722;48.754;8.868;2023-06-22T20:46:27;22.50;77.70
19180;DHT22;9722;48.754;8.868;2023-06-22T20:49:50;22.50;78.50
19180;DHT22;9722;48.754;8.868;2023-06-22T20:53:11;22.40;79.20
19180;DHT22;9722;48.754;8.868;2023-06-22T20:56:31;22.40;80.10
19180;DHT22;9722;48.754;8.868;2023-06-22T20:59:55;22.30;81.10
19180;DHT22;9722;48.754;8.868;2023-06-22T21:03:16;22.30;82.00
19180;DHT22;9722;48.754;8.868;2023-06-22T21:06:36;22.20;82.70
19180;DHT22;9722;48.754;8.868;2023-06-22T21:09:57;22.10;83.00
19180;DHT22;9722;48.754;8.868;2023-06-22T21:13:17;21.90;82.80
19180;DHT22;9722;48.754;8.868;2023-06-22T21:16:39;21.80;83.00
19180;DHT22;9722;48.754;8.868;2023-06-22T21:20:00;21.70;84.00
19180;DHT22;9722;48.754;8.868;2023-06-22T21:23:20;21.60;83.80
19180;DHT22;9722;48.754;8.868;2023-06-22T21:26:41;21.40;84.40
19180;DHT22;9722;48.754;8.868;2023-06-22T21:30:02;21.20;85.00
19180;DHT22;9722;48.754;8.868;2023-06-22T21:33:23;21.10;85.50
19180;DHT22;9722;48.754;8.868;2023-06-22T21:36:43;20.90;86.00
19180;DHT22;9722;48.754;8.868;2023-06-22T21:40:05;20.80;86.20
19180;DHT22;9722;48.754;8.868;2023-06-22T21:43:26;20.70;86.70